Time;durP1;ratioP1;P1;durP2;ratioP2;P2;SDS_P1;SDS_P2;PMS_P1;PMS_P2;Temp;Humidity;BMP_temperature;BMP_pressure;BME280_temperature;BME280_humidity;BME280_pressure;Samples;Min_cycle;Max_cycle;Signal;HPM_P1;HPM_P2
2022/11/15 00:00:10;;;;;;;34.80;17.20;;;;;;;;;;5005964;28;20033;-89
2022/11/15 00:02:36;;;;;;;37.70;16.63;;;;;;;;;;4987244;28;20026;-89
2022/11/15 00:05:03;;;;;;;37.45;17.48;;;;;;;;;;5002451;28;20038;-89
2022/11/15 00:07:29;;;;;;;35.08;17.85;;;;;;;;;;4997274;28;20041;-89
2022/11/15 00:09:55;;;;;;;36.70;17.83;;;;;;;;;;5000915;28;20037;-89
2022/11/15 00:12:21;;;;;;;33.95;17.08;;;;;;;;;;5012499;28;20265;-89
2022/11/15 00:14:47;;;;;;;37.72;16.80;;;;;;;;;;4986079;28;20569;-90
2022/11/15 00:17:13;;;;;;;35.35;18.23;;;;;;;;;;5001217;28;20113;-89
2022/11/15 00:19:39;;;;;;;38.72;16.83;;;;;;;;;;4993265;28;20128;-89
2022/11/15 00:22:05;;;;;;;34.13;16.30;;;;;;;;;;4969998;28;20113;-89
2022/11/15 00:24:31;;;;;;;35.88;17.55;;;;;;;;;;5004939;28;20096;-90
2022/11/15 00:26:57;;;;;;;41.15;18.75;;;;;;;;;;4997023;28;20562;-90
2022/11/15 00:29:23;;;;;;;40.67;18.42;;;;;;;;;;5001947;28;20038;-90
2022/11/15 00:31:49;;;;;;;37.65;17.55;;;;;;;;;;4982770;28;20041;-89
2022/11/15 00:34:15;;;;;;;40.20;17.67;;;;;;;;;;4968821;28;20044;-89
2022/11/15 00:36:41;;;;;;;42.30;16.55;;;;;;;;;;4998492;28;20112;-89
2022/11/15 00:39:07;;;;;;;42.53;17.55;;;;;;;;;;4965075;28;20144;-90
2022/11/15 00:41:33;;;;;;;39.30;18.83;;;;;;;;;;5007535;28;20409;-90
2022/11/15 00:43:59;;;;;;;39.92;17.63;;;;;;;;;;5002998;28;20149;-90
2022/11/15 00:46:25;;;;;;;37.67;17.88;;;;;;;;;;4984064;28;20506;-90
2022/11/15 00:48:51;;;;;;;35.47;17.25;;;;;;;;;;5022504;28;20187;-90
2022/11/15 00:51:17;;;;;;;36.95;17.58;;;;;;;;;;5020568;28;20034;-90
2022/11/15 00:53:43;;;;;;;35.30;16.77;;;;;;;;;;5004731;28;21585;-90
2022/11/15 00:56:09;;;;;;;35.85;16.50;;;;;;;;;;5006675;28;20041;-90
2022/11/15 00:58:35;;;;;;;41.83;18.20;;;;;;;;;;4991216;28;20030;-91
2022/11/15 01:01:13;;;;;;;36.40;17.65;;;;;;;;;;4993238;28;20084;-90
2022/11/15 01:03:40;;;;;;;40.83;17.15;;;;;;;;;;5008289;28;20032;-89
2022/11/15 01:06:07;;;;;;;37.03;18.23;;;;;;;;;;4998194;28;20037;-89
2022/11/15 01:08:33;;;;;;;33.25;15.88;;;;;;;;;;5005461;28;20120;-90
2022/11/15 01:11:07;;;;;;;42.15;18.33;;;;;;;;;;5003654;28;20086;-89
2022/11/15 01:13:34;;;;;;;40.95;18.38;;;;;;;;;;5010040;28;20040;-89
2022/11/15 01:16:06;;;;;;;44.58;17.58;;;;;;;;;;5002074;28;20053;-89
2022/11/15 01:18:32;;;;;;;38.65;18.23;;;;;;;;;;5008495;28;20037;-89
2022/11/15 01:20:58;;;;;;;34.28;16.67;;;;;;;;;;4986924;28;20033;-89
2022/11/15 01:23:24;;;;;;;33.80;16.83;;;;;;;;;;5022157;28;20191;-89
2022/11/15 01:25:50;;;;;;;37.08;16.70;;;;;;;;;;5009201;28;20036;-91
2022/11/15 01:28:16;;;;;;;43.33;18.30;;;;;;;;;;5006112;28;20033;-90
2022/11/15 01:30:42;;;;;;;36.53;16.77;;;;;;;;;;4988449;28;20037;-90
2022/11/15 01:33:08;;;;;;;39.80;17.95;;;;;;;;;;5022359;28;20067;-90
2022/11/15 01:35:38;;;;;;;35.35;15.68;;;;;;;;;;4989640;28;20037;-89
2022/11/15 01:38:04;;;;;;;33.85;17.00;;;;;;;;;;4998084;28;20038;-89
2022/11/15 01:40:31;;;;;;;30.42;15.68;;;;;;;;;;5004364;28;20033;-89
2022/11/15 01:42:56;;;;;;;36.10;17.58;;;;;;;;;;5003172;28;20036;-89
2022/11/15 01:45:23;;;;;;;31.13;15.43;;;;;;;;;;4973438;28;20469;-89
2022/11/15 01:47:51;;;;;;;37.17;17.27;;;;;;;;;;4984232;28;20497;-89
2022/11/15 01:50:19;;;;;;;25.92;11.85;;;;;;;;;;5001806;28;20026;-89
2022/11/15 01:52:46;;;;;;;29.13;12.57;;;;;;;;;;4987238;28;20132;-90
2022/11/15 01:55:22;;;;;;;34.22;16.17;;;;;;;;;;4984798;28;20489;-90
2022/11/15 01:57:48;;;;;;;;;;;;;;;;;;4980858;28;20051;-90
2022/11/15 02:00:14;;;;;;;31.08;12.05;;;;;;;;;;4977946;28;19913;-89
2022/11/15 02:02:40;;;;;;;29.70;12.85;;;;;;;;;;4983936;28;20076;-89
2022/11/15 02:05:06;;;;;;;28.23;13.65;;;;;;;;;;4971387;28;20146;-89
2022/11/15 02:07:34;;;;;;;36.15;16.50;;;;;;;;;;4985679;28;20557;-90
2022/11/15 02:10:03;;;;;;;37.53;16.88;;;;;;;;;;4989287;28;20033;-89
2022/11/15 02:12:29;;;;;;;35.13;16.25;;;;;;;;;;4988984;28;20061;-89
2022/11/15 02:14:55;;;;;;;23.13;8.85;;;;;;;;;;4967107;28;20037;-89
2022/11/15 02:17:30;;;;;;;27.02;12.50;;;;;;;;;;4983209;28;20233;-89
2022/11/15 02:20:00;;;;;;;37.08;15.70;;;;;;;;;;5008107;28;20026;-89
2022/11/15 02:22:26;;;;;;;22.00;9.93;;;;;;;;;;4982104;28;20026;-89
2022/11/15 02:25:04;;;;;;;28.52;14.25;;;;;;;;;;5004994;28;20397;-89
2022/11/15 02:27:42;;;;;;;35.22;14.27;;;;;;;;;;4988913;28;20544;-89
2022/11/15 02:30:34;;;;;;;35.08;15.07;;;;;;;;;;4996914;28;20034;-89
2022/11/15 02:33:19;;;;;;;30.88;11.80;;;;;;;;;;4961216;28;20377;-89
2022/11/15 02:36:00;;;;;;;33.67;14.75;;;;;;;;;;4988647;28;20038;-88
2022/11/15 02:38:35;;;;;;;33.30;14.95;;;;;;;;;;4988523;28;20617;-90
2022/11/15 02:41:28;;;;;;;34.33;15.25;;;;;;;;;;4988276;28;20077;-90
2022/11/15 02:44:01;;;;;;;41.35;15.73;;;;;;;;;;4963640;28;20033;-90
2022/11/15 02:49:28;;;;;;;32.80;13.00;;;;;;;;;;5021259;28;20044;-90
2022/11/15 02:51:57;;;;;;;43.80;16.75;;;;;;;;;;5028020;28;20033;-89
2022/11/15 02:54:24;;;;;;;45.15;17.40;;;;;;;;;;4991430;28;20026;-90
2022/11/15 02:56:52;;;;;;;37.17;16.67;;;;;;;;;;5005971;28;20037;-89
2022/11/15 02:59:27;;;;;;;38.63;17.25;;;;;;;;;;5006953;28;20053;-90
2022/11/15 03:02:19;;;;;;;44.55;16.17;;;;;;;;;;5006685;28;20068;-89
2022/11/15 03:04:50;;;;;;;37.08;16.23;;;;;;;;;;5004032;28;20026;-90
2022/11/15 03:07:23;;;;;;;31.00;13.48;;;;;;;;;;5012771;28;20034;-89
2022/11/15 03:10:02;;;;;;;37.78;16.02;;;;;;;;;;5007882;28;20652;-89
2022/11/15 03:12:35;;;;;;;37.63;15.18;;;;;;;;;;5003453;28;20034;-89
2022/11/15 03:15:24;;;;;;;39.33;16.42;;;;;;;;;;5006042;28;20557;-89
2022/11/15 03:17:53;;;;;;;42.35;16.85;;;;;;;;;;4979637;28;20106;-89
2022/11/15 03:20:19;;;;;;;38.63;17.02;;;;;;;;;;5004975;28;20030;-89
2022/11/15 03:22:47;;;;;;;38.88;16.17;;;;;;;;;;4994399;28;20183;-89
2022/11/15 03:25:16;;;;;;;43.13;17.02;;;;;;;;;;5009189;28;20087;-89
2022/11/15 03:27:45;;;;;;;38.22;16.70;;;;;;;;;;4996602;28;20082;-90
2022/11/15 03:30:11;;;;;;;38.38;15.60;;;;;;;;;;5011580;28;20033;-90
2022/11/15 03:32:45;;;;;;;40.75;15.43;;;;;;;;;;4989607;28;20543;-90
2022/11/15 03:35:13;;;;;;;40.22;16.60;;;;;;;;;;5021583;28;20483;-89
2022/11/15 03:37:39;;;;;;;42.38;17.48;;;;;;;;;;5023105;28;20473;-89
2022/11/15 03:40:05;;;;;;;42.05;17.92;;;;;;;;;;5003984;28;20454;-90
2022/11/15 03:42:39;;;;;;;43.95;17.52;;;;;;;;;;5009715;28;20489;-89
2022/11/15 03:45:23;;;;;;;42.53;18.17;;;;;;;;;;5003199;28;20049;-91
2022/11/15 03:48:00;;;;;;;39.58;14.10;;;;;;;;;;4981671;28;20034;-91
2022/11/15 03:50:26;;;;;;;43.75;18.23;;;;;;;;;;4986407;28;20080;-91
2022/11/15 03:52:54;;;;;;;38.25;14.00;;;;;;;;;;4984823;28;20182;-91
2022/11/15 03:55:21;;;;;;;48.25;17.75;;;;;;;;;;4986356;28;20037;-91
2022/11/15 03:57:49;;;;;;;40.17;15.63;;;;;;;;;;4984509;28;20487;-91
2022/11/15 04:00:15;;;;;;;43.47;16.90;;;;;;;;;;5001253;28;20033;-90
2022/11/15 04:02:41;;;;;;;40.95;16.20;;;;;;;;;;5001045;28;20419;-90
2022/11/15 04:05:07;;;;;;;39.22;16.33;;;;;;;;;;4974729;28;20140;-89
2022/11/15 04:07:33;;;;;;;34.28;14.93;;;;;;;;;;4969341;28;20042;-90
2022/11/15 04:10:02;;;;;;;37.08;14.65;;;;;;;;;;4982518;28;20072;-90
2022/11/15 04:12:31;;;;;;;38.35;16.08;;;;;;;;;;4983749;28;20064;-89
2022/11/15 04:15:18;;;;;;;44.17;17.63;;;;;;;;;;4986243;28;20030;-89
2022/11/15 04:17:48;;;;;;;43.03;16.88;;;;;;;;;;4979730;28;20045;-90
2022/11/15 04:26:18;;;;;;;52.63;19.25;;;;;;;;;;4997371;28;20121;-89
2022/11/15 04:31:29;;;;;;;46.30;17.10;;;;;;;;;;5000320;28;20883;-89
2022/11/15 04:33:55;;;;;;;42.50;17.55;;;;;;;;;;4970695;28;20030;-89
2022/11/15 04:39:06;;;;;;;47.47;18.25;;;;;;;;;;4984942;28;20089;-89
2022/11/15 04:41:32;;;;;;;54.10;19.38;;;;;;;;;;4972421;28;20528;-90
2022/11/15 04:43:59;;;;;;;53.67;17.65;;;;;;;;;;4986707;28;20037;-90
2022/11/15 04:46:32;;;;;;;49.50;17.85;;;;;;;;;;5004501;28;20072;-89
2022/11/15 04:48:58;;;;;;;57.15;19.65;;;;;;;;;;4989358;28;20032;-89
2022/11/15 04:51:24;;;;;;;48.28;17.55;;;;;;;;;;5005320;28;21997;-89
2022/11/15 04:53:50;;;;;;;58.17;19.63;;;;;;;;;;4992458;28;20037;-88
2022/11/15 04:56:16;;;;;;;57.22;19.27;;;;;;;;;;4992236;28;20034;-89
2022/11/15 04:58:42;;;;;;;51.03;17.92;;;;;;;;;;4987635;28;20052;-89
2022/11/15 05:01:08;;;;;;;49.42;18.30;;;;;;;;;;5008510;28;20481;-89
2022/11/15 05:06:19;;;;;;;57.58;19.75;;;;;;;;;;5007456;28;20050;-89
2022/11/15 05:08:45;;;;;;;60.10;19.45;;;;;;;;;;5007466;28;20099;-89
2022/11/15 05:11:11;;;;;;;45.58;19.02;;;;;;;;;;5002880;28;20220;-89
2022/11/15 05:13:38;;;;;;;55.95;19.70;;;;;;;;;;5009677;28;20045;-90
2022/11/15 05:16:04;;;;;;;55.92;19.77;;;;;;;;;;4990912;28;20025;-90
2022/11/15 05:18:30;;;;;;;62.88;21.63;;;;;;;;;;4983397;28;20048;-90
2022/11/15 05:21:11;;;;;;;65.40;20.77;;;;;;;;;;4990841;28;20053;-89
2022/11/15 05:23:58;;;;;;;59.60;19.90;;;;;;;;;;5002681;28;20170;-89
2022/11/15 05:26:24;;;;;;;;;;;;;;;;;;5012892;28;20037;-89
2022/11/15 05:28:54;;;;;;;63.10;19.45;;;;;;;;;;5009310;28;21326;-89
2022/11/15 05:31:21;;;;;;;59.70;19.88;;;;;;;;;;5007308;28;20036;-89
2022/11/15 05:33:47;;;;;;;63.38;20.27;;;;;;;;;;5006598;28;20042;-89
2022/11/15 05:36:23;;;;;;;70.53;20.42;;;;;;;;;;4987104;28;20022;-89
2022/11/15 05:38:49;;;;;;;;;;;;;;;;;;5009250;28;20600;-90
2022/11/15 05:41:16;;;;;;;48.70;19.52;;;;;;;;;;5001860;28;20384;-89
2022/11/15 05:43:43;;;;;;;70.38;20.38;;;;;;;;;;5014537;28;20029;-91
2022/11/15 05:46:22;;;;;;;55.80;22.52;;;;;;;;;;4985037;28;20038;-90
2022/11/15 05:48:50;;;;;;;63.53;21.98;;;;;;;;;;4981212;28;20027;-89
2022/11/15 05:51:17;;;;;;;53.63;20.15;;;;;;;;;;4997131;28;20836;-90
2022/11/15 05:53:44;;;;;;;67.25;22.02;;;;;;;;;;5003455;28;20740;-90
2022/11/15 05:56:10;;;;;;;66.85;21.17;;;;;;;;;;4972944;28;20022;-89
2022/11/15 05:58:37;;;;;;;67.30;21.65;;;;;;;;;;4968902;28;20030;-89
2022/11/15 06:01:03;;;;;;;63.80;22.63;;;;;;;;;;4974483;28;20093;-90
2022/11/15 06:03:29;;;;;;;54.38;20.48;;;;;;;;;;4960876;28;20033;-90
2022/11/15 06:05:56;;;;;;;70.28;21.55;;;;;;;;;;4993785;28;20393;-89
2022/11/15 06:08:25;;;;;;;56.35;22.70;;;;;;;;;;4965351;28;20152;-90
2022/11/15 06:10:51;;;;;;;62.53;22.67;;;;;;;;;;4970740;28;20038;-90
2022/11/15 06:13:17;;;;;;;73.63;24.50;;;;;;;;;;4984100;28;20042;-88
2022/11/15 06:15:43;;;;;;;67.40;23.33;;;;;;;;;;4980050;28;20069;-88
2022/11/15 06:18:09;;;;;;;61.97;23.20;;;;;;;;;;4969694;28;20062;-89
2022/11/15 06:20:36;;;;;;;62.70;22.42;;;;;;;;;;4961730;28;20476;-89
2022/11/15 06:23:03;;;;;;;62.50;21.30;;;;;;;;;;4965624;28;20034;-89
2022/11/15 06:25:30;;;;;;;74.28;23.42;;;;;;;;;;4983238;28;20033;-89
2022/11/15 06:27:57;;;;;;;87.55;24.92;;;;;;;;;;4997073;28;20031;-89
2022/11/15 06:30:23;;;;;;;66.88;21.98;;;;;;;;;;4981862;28;20477;-89
2022/11/15 06:32:49;;;;;;;74.88;23.52;;;;;;;;;;4978046;28;20034;-90
2022/11/15 06:35:16;;;;;;;76.07;23.02;;;;;;;;;;4997770;28;20505;-89
2022/11/15 06:37:42;;;;;;;84.20;24.73;;;;;;;;;;4996313;28;20041;-90
2022/11/15 06:40:09;;;;;;;71.40;23.70;;;;;;;;;;4976293;28;20509;-90
2022/11/15 06:42:35;;;;;;;79.18;22.60;;;;;;;;;;4981885;28;20034;-89
2022/11/15 06:45:01;;;;;;;72.00;23.73;;;;;;;;;;4979244;28;21407;-89
2022/11/15 06:47:28;;;;;;;87.03;26.30;;;;;;;;;;4986218;28;20053;-89
2022/11/15 06:49:54;;;;;;;65.65;23.02;;;;;;;;;;5015440;28;20407;-89
2022/11/15 06:52:21;;;;;;;74.03;24.60;;;;;;;;;;5013297;28;20562;-90
2022/11/15 06:54:47;;;;;;;72.55;24.38;;;;;;;;;;4989772;28;20561;-89
2022/11/15 06:57:13;;;;;;;78.93;24.67;;;;;;;;;;4986217;28;20048;-89
2022/11/15 06:59:39;;;;;;;58.58;24.13;;;;;;;;;;5001113;28;20030;-89
2022/11/15 07:02:06;;;;;;;69.95;25.33;;;;;;;;;;4993108;28;20044;-89
2022/11/15 07:04:32;;;;;;;71.15;23.67;;;;;;;;;;4982936;28;20037;-90
2022/11/15 07:06:58;;;;;;;76.15;26.38;;;;;;;;;;5024938;28;20041;-90
2022/11/15 07:09:24;;;;;;;50.63;18.20;;;;;;;;;;4992243;28;20040;-89
2022/11/15 07:11:50;;;;;;;67.20;23.20;;;;;;;;;;5012053;28;20030;-89
2022/11/15 07:14:16;;;;;;;57.13;19.88;;;;;;;;;;4993603;28;20473;-89
2022/11/15 07:16:42;;;;;;;70.28;24.90;;;;;;;;;;5003575;28;20544;-89
2022/11/15 07:19:09;;;;;;;56.67;20.75;;;;;;;;;;4991571;28;20038;-89
2022/11/15 07:21:35;;;;;;;66.40;24.52;;;;;;;;;;4989807;28;20062;-89
2022/11/15 07:24:01;;;;;;;53.83;19.92;;;;;;;;;;5004991;28;20036;-89
2022/11/15 07:26:29;;;;;;;44.60;18.15;;;;;;;;;;4999281;28;20469;-89
2022/11/15 07:28:55;;;;;;;66.18;23.98;;;;;;;;;;5006369;28;20466;-89
2022/11/15 07:31:22;;;;;;;60.58;21.08;;;;;;;;;;4997641;28;20496;-89
2022/11/15 07:33:48;;;;;;;58.42;21.77;;;;;;;;;;5004224;28;20293;-89
2022/11/15 07:36:14;;;;;;;67.85;24.80;;;;;;;;;;4989643;28;20033;-90
2022/11/15 07:38:40;;;;;;;54.80;21.30;;;;;;;;;;4988138;28;20615;-89
2022/11/15 07:41:07;;;;;;;64.70;24.05;;;;;;;;;;4989703;28;20021;-89
2022/11/15 07:43:33;;;;;;;65.82;24.60;;;;;;;;;;5002864;28;20029;-90
2022/11/15 07:46:14;;;;;;;58.45;22.55;;;;;;;;;;5004982;28;20058;-89
2022/11/15 07:48:40;;;;;;;59.30;22.00;;;;;;;;;;5001429;28;20120;-89
2022/11/15 07:51:07;;;;;;;59.95;23.38;;;;;;;;;;4988820;28;20033;-89
2022/11/15 07:53:33;;;;;;;65.43;24.05;;;;;;;;;;5014078;28;20041;-89
2022/11/15 07:55:59;;;;;;;61.33;22.52;;;;;;;;;;5000007;28;20084;-89
2022/11/15 07:58:25;;;;;;;57.63;20.70;;;;;;;;;;4976979;28;20034;-88
2022/11/15 08:00:51;;;;;;;60.13;20.85;;;;;;;;;;4980167;28;20459;-89
2022/11/15 08:03:17;;;;;;;44.97;19.10;;;;;;;;;;4999620;28;20497;-89
2022/11/15 08:05:50;;;;;;;56.63;21.30;;;;;;;;;;4982473;28;20029;-89
2022/11/15 08:08:16;;;;;;;59.83;21.95;;;;;;;;;;5000664;28;20061;-89
2022/11/15 08:10:42;;;;;;;44.55;16.58;;;;;;;;;;4995688;28;20076;-88
2022/11/15 08:13:10;;;;;;;50.13;20.80;;;;;;;;;;5001136;28;20030;-88
2022/11/15 08:15:36;;;;;;;48.20;20.65;;;;;;;;;;4995847;28;20052;-89
2022/11/15 08:18:14;;;;;;;56.90;20.10;;;;;;;;;;4999382;28;20044;-89
2022/11/15 08:20:40;;;;;;;50.00;20.02;;;;;;;;;;4998355;28;20030;-89
2022/11/15 08:23:07;;;;;;;51.70;21.05;;;;;;;;;;5013382;28;20041;-89
2022/11/15 08:25:34;;;;;;;28.08;13.30;;;;;;;;;;4996710;28;20030;-88
2022/11/15 08:28:01;;;;;;;47.90;21.40;;;;;;;;;;5012125;28;20050;-89
2022/11/15 08:30:27;;;;;;;52.08;20.45;;;;;;;;;;5000345;28;20045;-89
2022/11/15 08:32:54;;;;;;;50.17;19.10;;;;;;;;;;4995162;28;20036;-89
2022/11/15 08:35:21;;;;;;;32.63;12.95;;;;;;;;;;4997823;28;20166;-88
2022/11/15 08:37:47;;;;;;;39.30;18.40;;;;;;;;;;4982048;28;20052;-89
2022/11/15 08:40:13;;;;;;;42.67;18.00;;;;;;;;;;5012964;28;20030;-89
2022/11/15 08:42:40;;;;;;;35.13;16.90;;;;;;;;;;4990956;28;20477;-88
2022/11/15 08:45:06;;;;;;;45.85;18.85;;;;;;;;;;4995571;28;20044;-88
2022/11/15 08:47:39;;;;;;;45.35;18.67;;;;;;;;;;5010837;28;20042;-89
2022/11/15 08:50:05;;;;;;;39.47;16.85;;;;;;;;;;4983311;28;20042;-89
2022/11/15 08:52:31;;;;;;;42.60;18.27;;;;;;;;;;4996882;28;20695;-89
2022/11/15 08:54:58;;;;;;;32.70;14.48;;;;;;;;;;4981372;28;20026;-88
2022/11/15 08:57:24;;;;;;;30.38;14.00;;;;;;;;;;5014527;28;20473;-88
2022/11/15 08:59:50;;;;;;;36.22;17.48;;;;;;;;;;4987583;28;20095;-89
2022/11/15 09:02:16;;;;;;;31.40;17.13;;;;;;;;;;4974752;28;20066;-89
2022/11/15 09:04:42;;;;;;;33.30;14.52;;;;;;;;;;4975343;28;20042;-89
2022/11/15 09:07:09;;;;;;;41.13;16.17;;;;;;;;;;4994452;28;20509;-88
2022/11/15 09:09:35;;;;;;;34.58;12.85;;;;;;;;;;5012239;28;20057;-89
2022/11/15 09:12:01;;;;;;;28.85;12.43;;;;;;;;;;5002223;28;20031;-89
2022/11/15 09:14:27;;;;;;;29.65;15.00;;;;;;;;;;4984477;28;20038;-89
2022/11/15 09:16:53;;;;;;;36.05;15.20;;;;;;;;;;5003137;28;20038;-88
2022/11/15 09:19:19;;;;;;;32.13;14.85;;;;;;;;;;4998000;28;20040;-89
2022/11/15 09:21:45;;;;;;;27.90;15.48;;;;;;;;;;5000629;28;20047;-89
2022/11/15 09:24:11;;;;;;;27.90;15.57;;;;;;;;;;4988821;28;20566;-89
2022/11/15 09:26:37;;;;;;;26.80;13.00;;;;;;;;;;4982198;28;20025;-89
2022/11/15 09:29:03;;;;;;;23.63;12.57;;;;;;;;;;4989276;28;20025;-89
2022/11/15 09:31:29;;;;;;;30.10;13.43;;;;;;;;;;5003825;28;20088;-89
2022/11/15 09:33:56;;;;;;;31.10;14.55;;;;;;;;;;5006101;28;20037;-89
2022/11/15 09:36:22;;;;;;;28.67;13.98;;;;;;;;;;4976447;28;20474;-89
2022/11/15 09:38:48;;;;;;;25.92;13.63;;;;;;;;;;4986320;28;20067;-89
2022/11/15 09:41:14;;;;;;;25.95;12.73;;;;;;;;;;5001717;28;20029;-89
2022/11/15 09:43:47;;;;;;;23.63;10.82;;;;;;;;;;5001283;28;20044;-88
2022/11/15 09:46:31;;;;;;;35.20;13.52;;;;;;;;;;4998044;28;20469;-89
2022/11/15 09:48:59;;;;;;;30.25;13.45;;;;;;;;;;4996771;28;20046;-89
2022/11/15 09:51:25;;;;;;;23.77;11.85;;;;;;;;;;4978223;28;20579;-89
2022/11/15 09:54:03;;;;;;;27.90;13.55;;;;;;;;;;4996812;28;20110;-89
2022/11/15 09:56:35;;;;;;;30.70;14.65;;;;;;;;;;4979012;28;20120;-89
2022/11/15 09:59:07;;;;;;;27.83;12.10;;;;;;;;;;4996305;28;20030;-89
2022/11/15 10:01:53;;;;;;;27.70;13.60;;;;;;;;;;4978191;28;20041;-88
2022/11/15 10:04:21;;;;;;;28.17;13.35;;;;;;;;;;4977856;28;20025;-89
2022/11/15 10:06:50;;;;;;;30.00;12.98;;;;;;;;;;4981560;28;20121;-89
2022/11/15 10:09:20;;;;;;;26.50;12.90;;;;;;;;;;4992150;28;20025;-89
2022/11/15 10:11:46;;;;;;;25.55;13.38;;;;;;;;;;4998593;28;20041;-88
2022/11/15 10:14:26;;;;;;;25.50;13.00;;;;;;;;;;4993478;28;20529;-89
2022/11/15 10:17:07;;;;;;;29.95;14.15;;;;;;;;;;4995026;28;20137;-89
2022/11/15 10:19:47;;;;;;;35.97;14.65;;;;;;;;;;4992593;28;20058;-89
2022/11/15 10:22:19;;;;;;;26.10;12.48;;;;;;;;;;4992437;28;20042;-88
2022/11/15 10:24:45;;;;;;;26.00;11.40;;;;;;;;;;4999527;28;20037;-89
2022/11/15 10:27:17;;;;;;;26.02;12.57;;;;;;;;;;4977662;28;20274;-89
2022/11/15 10:29:47;;;;;;;31.88;13.20;;;;;;;;;;5000379;28;20038;-88
2022/11/15 10:32:15;;;;;;;29.48;12.55;;;;;;;;;;5001293;28;20477;-89
2022/11/15 10:34:42;;;;;;;27.38;12.32;;;;;;;;;;4992629;28;20238;-88
2022/11/15 10:37:08;;;;;;;30.50;12.57;;;;;;;;;;4983080;28;20037;-89
2022/11/15 10:39:34;;;;;;;24.83;12.15;;;;;;;;;;4977111;28;20039;-89
2022/11/15 10:42:19;;;;;;;26.70;13.38;;;;;;;;;;4985541;28;20037;-89
2022/11/15 10:44:46;;;;;;;25.35;12.52;;;;;;;;;;4985400;28;20037;-89
2022/11/15 10:47:38;;;;;;;26.85;12.25;;;;;;;;;;5001601;28;20425;-88
2022/11/15 10:50:26;;;;;;;24.73;11.73;;;;;;;;;;5014769;28;20080;-89
2022/11/15 10:52:52;;;;;;;23.05;12.00;;;;;;;;;;5000810;28;20736;-89
2022/11/15 10:55:22;;;;;;;35.42;12.57;;;;;;;;;;4994096;28;20495;-88
2022/11/15 10:57:53;;;;;;;23.75;11.82;;;;;;;;;;5000860;28;20587;-88
2022/11/15 11:00:19;;;;;;;23.88;12.65;;;;;;;;;;4999121;28;20041;-86
2022/11/15 11:03:07;;;;;;;20.95;10.48;;;;;;;;;;5024174;28;20053;-91
2022/11/15 11:05:40;;;;;;;26.90;11.75;;;;;;;;;;4988102;28;20030;-90
2022/11/15 11:08:15;;;;;;;28.42;12.27;;;;;;;;;;5000992;28;20074;-87
2022/11/15 11:10:58;;;;;;;24.33;12.70;;;;;;;;;;4997977;28;20037;-88
2022/11/15 11:13:26;;;;;;;24.88;12.85;;;;;;;;;;5003778;28;20405;-87
2022/11/15 11:16:12;;;;;;;24.30;11.98;;;;;;;;;;5000961;28;20034;-87
2022/11/15 11:18:50;;;;;;;24.58;12.75;;;;;;;;;;5004060;28;20667;-89
2022/11/15 11:21:26;;;;;;;21.60;10.82;;;;;;;;;;5011227;28;20505;-87
2022/11/15 11:23:55;;;;;;;22.75;10.43;;;;;;;;;;5001100;28;20433;-89
2022/11/15 11:26:35;;;;;;;21.27;11.88;;;;;;;;;;4996196;28;20038;-87
2022/11/15 11:29:20;;;;;;;19.42;8.43;;;;;;;;;;4991814;28;20064;-87
2022/11/15 11:32:02;;;;;;;20.13;11.90;;;;;;;;;;5016622;28;20572;-87
2022/11/15 11:34:49;;;;;;;22.90;11.88;;;;;;;;;;5003513;28;20413;-87
2022/11/15 11:37:15;;;;;;;21.13;11.07;;;;;;;;;;5007570;28;20029;-87
2022/11/15 11:40:01;;;;;;;18.67;11.15;;;;;;;;;;5020008;28;20148;-89
2022/11/15 11:42:36;;;;;;;21.45;11.48;;;;;;;;;;5019467;28;20037;-87
2022/11/15 11:45:02;;;;;;;17.92;10.48;;;;;;;;;;5002848;28;20508;-87
2022/11/15 11:47:33;;;;;;;23.45;11.07;;;;;;;;;;5009010;28;20108;-87
2022/11/15 11:50:18;;;;;;;20.55;9.65;;;;;;;;;;4998354;28;20400;-88
2022/11/15 11:53:06;;;;;;;19.33;9.98;;;;;;;;;;5000247;28;20279;-89
2022/11/15 11:55:37;;;;;;;14.77;8.45;;;;;;;;;;5000054;28;20540;-87
2022/11/15 11:58:22;;;;;;;17.02;8.50;;;;;;;;;;4994635;28;20041;-87
2022/11/15 12:00:51;;;;;;;15.68;7.75;;;;;;;;;;5001934;28;20026;-87
2022/11/15 12:03:28;;;;;;;13.05;8.55;;;;;;;;;;5016087;28;20022;-90
2022/11/15 12:06:01;;;;;;;13.25;7.13;;;;;;;;;;4996729;28;20405;-88
2022/11/15 12:08:37;;;;;;;12.50;7.28;;;;;;;;;;5001709;28;20068;-89
2022/11/15 12:11:19;;;;;;;12.45;7.45;;;;;;;;;;5000133;28;20037;-89
2022/11/15 12:13:48;;;;;;;9.88;7.15;;;;;;;;;;4997299;28;20958;-88
2022/11/15 12:16:23;;;;;;;11.23;6.88;;;;;;;;;;4996388;28;20097;-87
2022/11/15 12:18:51;;;;;;;13.70;6.97;;;;;;;;;;4995801;28;20240;-88
2022/11/15 12:21:36;;;;;;;11.35;6.05;;;;;;;;;;4999507;28;20019;-88
2022/11/15 12:24:06;;;;;;;11.15;5.85;;;;;;;;;;5000197;28;20025;-88
2022/11/15 12:26:35;;;;;;;9.98;5.32;;;;;;;;;;4998725;28;20018;-88
2022/11/15 12:29:09;;;;;;;12.93;6.15;;;;;;;;;;4996363;28;20436;-88
2022/11/15 12:31:35;;;;;;;11.85;5.22;;;;;;;;;;5009380;28;20558;-88
2022/11/15 12:34:03;;;;;;;9.88;5.70;;;;;;;;;;5000719;28;20053;-88
2022/11/15 12:36:36;;;;;;;8.38;4.68;;;;;;;;;;5002260;28;20404;-87
2022/11/15 12:39:04;;;;;;;14.52;5.25;;;;;;;;;;5011731;28;20038;-88
2022/11/15 12:41:31;;;;;;;12.32;5.20;;;;;;;;;;5018993;28;20025;-88
2022/11/15 12:43:59;;;;;;;10.80;4.40;;;;;;;;;;5011487;28;20112;-88
2022/11/15 12:46:25;;;;;;;7.82;4.10;;;;;;;;;;5015411;28;20030;-88
2022/11/15 12:48:52;;;;;;;7.50;3.95;;;;;;;;;;4995977;28;20160;-88
2022/11/15 12:51:20;;;;;;;10.07;4.40;;;;;;;;;;5000649;28;20092;-88
2022/11/15 12:53:46;;;;;;;7.40;4.45;;;;;;;;;;5000340;28;20025;-88
2022/11/15 12:56:12;;;;;;;8.85;4.47;;;;;;;;;;4998850;28;20136;-88
2022/11/15 12:58:48;;;;;;;13.18;4.18;;;;;;;;;;5001882;28;20036;-88
2022/11/15 13:01:33;;;;;;;8.50;3.60;;;;;;;;;;5001963;28;20071;-88
2022/11/15 13:04:28;;;;;;;7.97;4.30;;;;;;;;;;5003648;28;20037;-88
2022/11/15 13:06:56;;;;;;;6.60;4.10;;;;;;;;;;4989110;28;20401;-88
2022/11/15 13:09:35;;;;;;;13.15;4.90;;;;;;;;;;4996228;28;20025;-88
2022/11/15 13:12:04;;;;;;;11.70;4.10;;;;;;;;;;5004787;28;20107;-88
2022/11/15 13:14:44;;;;;;;8.25;4.07;;;;;;;;;;5019102;28;20029;-88
2022/11/15 13:17:20;;;;;;;6.00;3.55;;;;;;;;;;5007647;28;20052;-88
2022/11/15 13:19:53;;;;;;;7.47;3.65;;;;;;;;;;4998040;28;20033;-88
2022/11/15 13:25:04;;;;;;;7.68;3.67;;;;;;;;;;5017932;28;20559;-88
2022/11/15 13:27:30;;;;;;;13.23;4.43;;;;;;;;;;5006087;28;20033;-88
2022/11/15 13:29:56;;;;;;;6.07;3.55;;;;;;;;;;5006673;28;20080;-88
2022/11/15 13:32:22;;;;;;;8.82;3.55;;;;;;;;;;5019175;28;20061;-88
2022/11/15 13:34:52;;;;;;;5.80;3.30;;;;;;;;;;4987456;28;20097;-88
2022/11/15 13:37:21;;;;;;;5.60;2.75;;;;;;;;;;5004848;28;20030;-88
2022/11/15 13:39:53;;;;;;;4.78;2.90;;;;;;;;;;5007520;28;20087;-88
2022/11/15 13:42:23;;;;;;;5.53;3.33;;;;;;;;;;4985498;28;20041;-88
2022/11/15 13:45:16;;;;;;;7.43;3.35;;;;;;;;;;4999449;28;20083;-88
2022/11/15 13:47:44;;;;;;;4.30;3.28;;;;;;;;;;4999895;28;20045;-88
2022/11/15 13:50:12;;;;;;;7.30;3.53;;;;;;;;;;4986595;28;20132;-88
2022/11/15 13:52:40;;;;;;;8.15;3.50;;;;;;;;;;5009495;28;20429;-88
2022/11/15 13:55:10;;;;;;;8.85;3.75;;;;;;;;;;5016191;28;20030;-88
2022/11/15 13:57:51;;;;;;;8.15;3.40;;;;;;;;;;5015567;28;20038;-88
2022/11/15 14:00:35;;;;;;;7.90;4.32;;;;;;;;;;5020114;28;20029;-88
2022/11/15 14:06:15;;;;;;;7.45;3.40;;;;;;;;;;5027533;28;20121;-88
2022/11/15 14:09:00;;;;;;;7.05;3.13;;;;;;;;;;5011984;28;20133;-88
2022/11/15 14:11:27;;;;;;;7.45;3.63;;;;;;;;;;5003395;28;20025;-88
2022/11/15 14:14:09;;;;;;;9.77;3.80;;;;;;;;;;5005244;28;20040;-88
2022/11/15 14:16:36;;;;;;;8.30;3.28;;;;;;;;;;5001275;28;20033;-88
2022/11/15 14:19:02;;;;;;;7.32;3.72;;;;;;;;;;4998225;28;20117;-88
2022/11/15 14:21:29;;;;;;;5.80;2.90;;;;;;;;;;4999126;28;20481;-88
2022/11/15 14:24:16;;;;;;;5.07;3.40;;;;;;;;;;5000474;28;20540;-88
2022/11/15 14:26:42;;;;;;;4.38;2.92;;;;;;;;;;5001646;28;20615;-88
2022/11/15 14:29:28;;;;;;;6.57;2.95;;;;;;;;;;4985160;28;20724;-88
2022/11/15 14:32:06;;;;;;;4.70;2.88;;;;;;;;;;4999648;28;20034;-88
2022/11/15 14:34:35;;;;;;;6.57;3.00;;;;;;;;;;4996548;28;20060;-88
2022/11/15 14:37:01;;;;;;;6.70;2.78;;;;;;;;;;4983782;28;20057;-89
2022/11/15 14:39:27;;;;;;;8.02;2.95;;;;;;;;;;4999808;28;20038;-89
2022/11/15 14:41:53;;;;;;;7.28;3.00;;;;;;;;;;4985932;28;20033;-89
2022/11/15 14:44:22;;;;;;;5.35;2.35;;;;;;;;;;4986054;28;20044;-89
2022/11/15 14:46:48;;;;;;;3.90;2.42;;;;;;;;;;4992083;28;20048;-89
2022/11/15 14:49:15;;;;;;;5.15;2.42;;;;;;;;;;4984478;28;20064;-89
2022/11/15 14:51:41;;;;;;;5.38;3.08;;;;;;;;;;5001072;28;20396;-89
2022/11/15 14:54:09;;;;;;;4.28;2.50;;;;;;;;;;4996427;28;20026;-90
2022/11/15 14:56:36;;;;;;;5.40;2.85;;;;;;;;;;5010481;28;20037;-89
2022/11/15 14:59:02;;;;;;;10.50;3.75;;;;;;;;;;5003531;28;20245;-89
2022/11/15 15:01:28;;;;;;;6.60;3.00;;;;;;;;;;4982364;28;20029;-89